Time;durP1;ratioP1;P1;durP2;ratioP2;P2;SDS_P1;SDS_P2;PMS_P1;PMS_P2;Temp;Humidity;BMP_temperature;BMP_pressure;BME280_temperature;BME280_humidity;BME280_pressure;Samples;Min_cycle;Max_cycle;Signal;HPM_P1;HPM_P2
2021/01/10 00:00:40;;;;;;;57.88;35.00;;;5.60;99.90;;;;;;2048012;28;20453;-76
2021/01/10 00:01:46;;;;;;;53.78;34.08;;;5.60;99.90;;;;;;2047397;28;20082;-76
2021/01/10 00:02:48;;;;;;;59.28;35.70;;;5.70;99.90;;;;;;2047846;28;20094;-76
2021/01/10 00:03:49;;;;;;;56.67;33.42;;;5.70;99.90;;;;;;2039491;29;20031;-75
2021/01/10 00:04:49;;;;;;;54.58;34.60;;;5.70;99.90;;;;;;2043147;29;20038;-76
2021/01/10 00:05:50;;;;;;;60.92;35.80;;;5.70;99.90;;;;;;2047322;28;20035;-74
2021/01/10 00:06:51;;;;;;;58.17;35.83;;;5.70;99.90;;;;;;2047336;29;20019;-75
2021/01/10 00:07:52;;;;;;;55.60;34.80;;;5.70;99.90;;;;;;2047628;28;20494;-77
2021/01/10 00:08:53;;;;;;;52.85;32.22;;;5.70;99.90;;;;;;2047874;28;20031;-75
2021/01/10 00:09:53;;;;;;;53.13;33.35;;;5.70;99.90;;;;;;2054494;28;20030;-76
2021/01/10 00:10:54;;;;;;;55.83;33.42;;;5.70;99.90;;;;;;2055212;28;20387;-76
2021/01/10 00:11:54;;;;;;;56.42;33.22;;;5.70;99.90;;;;;;2047848;28;20031;-76
2021/01/10 00:12:59;;;;;;;56.17;33.83;;;5.70;99.90;;;;;;2047905;28;20073;-76
2021/01/10 00:14:00;;;;;;;57.58;33.85;;;5.70;99.90;;;;;;2047819;29;20067;-76
2021/01/10 00:15:00;;;;;;;58.10;33.25;;;5.70;99.90;;;;;;2047856;28;20031;-75
2021/01/10 00:16:01;;;;;;;55.78;32.88;;;5.70;99.90;;;;;;2047417;28;20023;-75
2021/01/10 00:17:02;;;;;;;57.38;35.10;;;5.70;99.90;;;;;;2047275;28;20028;-77
2021/01/10 00:18:05;;;;;;;61.42;34.53;;;5.70;99.90;;;;;;2046956;28;20034;-76
2021/01/10 00:19:06;;;;;;;58.92;33.10;;;5.70;99.90;;;;;;2047571;29;20024;-77
2021/01/10 00:20:08;;;;;;;59.63;35.33;;;5.70;99.90;;;;;;2047808;28;20027;-76
2021/01/10 00:21:09;;;;;;;51.03;32.58;;;5.70;99.90;;;;;;2047801;28;20034;-76
2021/01/10 00:22:11;;;;;;;61.80;36.75;;;5.70;99.90;;;;;;2046775;29;20494;-77
2021/01/10 00:23:12;;;;;;;62.53;36.15;;;5.70;99.90;;;;;;2047176;29;20023;-75
2021/01/10 00:24:13;;;;;;;55.35;34.63;;;5.70;99.90;;;;;;2047872;28;20475;-76
2021/01/10 00:25:13;;;;;;;64.05;35.60;;;5.70;99.90;;;;;;2047571;28;20027;-77
2021/01/10 00:26:14;;;;;;;62.45;36.45;;;5.70;99.90;;;;;;2047568;28;20062;-76
2021/01/10 00:27:16;;;;;;;51.17;33.22;;;5.70;99.90;;;;;;2047100;28;20019;-75
2021/01/10 00:28:17;;;;;;;55.10;31.77;;;5.70;99.90;;;;;;2047500;28;20019;-75
2021/01/10 00:29:17;;;;;;;59.90;35.20;;;5.70;99.90;;;;;;2050676;28;20521;-76
2021/01/10 00:30:22;;;;;;;54.22;33.60;;;5.70;99.90;;;;;;2049784;28;20066;-76
2021/01/10 00:31:33;;;;;;;56.15;34.78;;;5.70;99.90;;;;;;2040046;29;20360;-76
2021/01/10 00:32:34;;;;;;;61.60;34.65;;;5.70;99.90;;;;;;2044605;29;20073;-77
2021/01/10 00:33:35;;;;;;;54.25;34.35;;;5.70;99.90;;;;;;2047651;28;20475;-77
2021/01/10 00:34:35;;;;;;;53.95;33.40;;;5.70;99.90;;;;;;2047834;28;20070;-77
2021/01/10 00:35:36;;;;;;;54.70;33.38;;;5.70;99.90;;;;;;2047587;28;20052;-76
2021/01/10 00:36:37;;;;;;;57.58;34.08;;;5.70;99.90;;;;;;2047222;28;20546;-75
2021/01/10 00:37:37;;;;;;;55.53;33.35;;;5.70;99.90;;;;;;2047138;28;20042;-75
2021/01/10 00:38:38;;;;;;;55.13;32.90;;;5.70;99.90;;;;;;2047253;28;20035;-75
2021/01/10 00:39:39;;;;;;;57.70;33.97;;;5.70;99.90;;;;;;2047587;28;20102;-74
2021/01/10 00:40:39;;;;;;;53.72;31.45;;;5.70;99.90;;;;;;2047814;28;20566;-76
2021/01/10 00:41:40;;;;;;;56.47;33.92;;;5.70;99.90;;;;;;2047873;28;20027;-78
2021/01/10 00:42:42;;;;;;;52.20;33.30;;;5.70;99.90;;;;;;2039946;28;20024;-76
2021/01/10 00:43:42;;;;;;;56.70;34.05;;;5.70;99.90;;;;;;2041969;29;20055;-77
2021/01/10 00:44:45;;;;;;;62.85;34.03;;;5.70;99.90;;;;;;2047306;28;20082;-77
2021/01/10 00:45:46;;;;;;;59.47;35.40;;;5.70;99.90;;;;;;2047180;28;20039;-77
2021/01/10 00:46:46;;;;;;;61.45;33.58;;;5.70;99.90;;;;;;2047493;28;20110;-76
2021/01/10 00:47:47;;;;;;;51.70;32.30;;;5.70;99.90;;;;;;2047541;28;20035;-77
2021/01/10 00:48:48;;;;;;;53.33;32.15;;;5.70;99.90;;;;;;2047612;28;20471;-77
2021/01/10 00:49:49;;;;;;;50.78;32.70;;;5.70;99.90;;;;;;2047435;28;20086;-76
2021/01/10 00:50:49;;;;;;;56.30;33.35;;;5.70;99.90;;;;;;2047761;28;20105;-77
2021/01/10 00:51:50;;;;;;;49.08;29.25;;;5.70;99.90;;;;;;2047492;28;20058;-77
2021/01/10 00:52:51;;;;;;;49.53;32.05;;;5.60;99.90;;;;;;2047524;28;20106;-78
2021/01/10 00:53:51;;;;;;;54.60;31.48;;;5.70;99.90;;;;;;2047278;29;20032;-77
2021/01/10 00:54:52;;;;;;;50.03;32.17;;;5.70;99.90;;;;;;2046887;29;20034;-79
2021/01/10 00:55:56;;;;;;;52.17;32.17;;;5.60;99.90;;;;;;2046567;29;20066;-77
2021/01/10 00:56:57;;;;;;;47.25;30.02;;;5.70;99.90;;;;;;2045153;29;20507;-78
2021/01/10 00:57:57;;;;;;;59.25;33.10;;;5.70;99.90;;;;;;2046259;29;20038;-77
2021/01/10 00:58:58;;;;;;;56.78;32.72;;;5.70;99.90;;;;;;2046851;29;20074;-78
2021/01/10 00:59:58;;;;;;;56.00;32.35;;;5.70;99.90;;;;;;2050347;28;20101;-76
2021/01/10 01:00:59;;;;;;;57.83;33.25;;;5.70;99.90;;;;;;2047751;29;20107;-76
2021/01/10 01:02:00;;;;;;;56.13;34.17;;;5.70;99.90;;;;;;2047121;29;20038;-77
2021/01/10 01:03:00;;;;;;;59.33;34.17;;;5.60;99.90;;;;;;2047195;28;20107;-77
2021/01/10 01:04:01;;;;;;;62.25;35.85;;;5.70;99.90;;;;;;2046514;29;20430;-77
2021/01/10 01:05:02;;;;;;;62.45;35.13;;;5.70;99.90;;;;;;2046686;29;20478;-76
2021/01/10 01:06:04;;;;;;;62.42;35.47;;;5.70;99.90;;;;;;2047416;28;20031;-77
2021/01/10 01:07:04;;;;;;;59.70;33.83;;;5.70;99.90;;;;;;2047239;29;20031;-78
2021/01/10 01:08:05;;;;;;;60.97;35.25;;;5.70;99.90;;;;;;2046785;29;20027;-78
2021/01/10 01:09:06;;;;;;;63.30;35.78;;;5.70;99.90;;;;;;2047395;28;20067;-78
2021/01/10 01:10:07;;;;;;;52.92;32.63;;;5.70;99.90;;;;;;2047124;28;20055;-77
2021/01/10 01:11:08;;;;;;;60.50;35.83;;;5.60;99.90;;;;;;2047225;28;20023;-75
2021/01/10 01:12:09;;;;;;;64.18;36.60;;;5.60;99.90;;;;;;2047183;28;20081;-77
2021/01/10 01:13:10;;;;;;;66.90;34.90;;;5.70;99.90;;;;;;2054573;28;20015;-76
2021/01/10 01:14:11;;;;;;;64.55;35.45;;;5.60;99.90;;;;;;2054484;28;20019;-78
2021/01/10 01:15:12;;;;;;;67.68;36.40;;;5.60;99.90;;;;;;2047095;28;20071;-75
2021/01/10 01:16:13;;;;;;;65.38;37.30;;;5.70;99.90;;;;;;2047054;28;20090;-76
2021/01/10 01:17:13;;;;;;;67.28;36.05;;;5.70;99.90;;;;;;2046697;29;20027;-79
2021/01/10 01:18:14;;;;;;;62.78;35.10;;;5.60;99.90;;;;;;2046847;28;20530;-77
2021/01/10 01:19:14;;;;;;;67.95;35.70;;;5.60;99.90;;;;;;2047392;28;20022;-76
2021/01/10 01:20:15;;;;;;;63.63;35.50;;;5.60;99.90;;;;;;2046703;29;20027;-78
2021/01/10 01:21:16;;;;;;;62.08;35.85;;;5.60;99.90;;;;;;2046439;29;20487;-75
2021/01/10 01:22:17;;;;;;;62.13;36.45;;;5.60;99.90;;;;;;2054872;28;20054;-76
2021/01/10 01:23:18;;;;;;;63.25;37.53;;;5.60;99.90;;;;;;2046301;29;20453;-76
2021/01/10 01:24:21;;;;;;;63.28;36.08;;;5.60;99.90;;;;;;2046481;29;20039;-75
2021/01/10 01:25:21;;;;;;;68.00;36.60;;;5.60;99.90;;;;;;2039208;29;20023;-78
2021/01/10 01:26:24;;;;;;;65.05;36.13;;;5.60;99.90;;;;;;2046827;29;20030;-77
2021/01/10 01:27:24;;;;;;;62.67;35.22;;;5.60;99.90;;;;;;2046686;28;20027;-77
2021/01/10 01:28:25;;;;;;;56.83;33.42;;;5.60;99.90;;;;;;2045938;29;20031;-77
2021/01/10 01:29:26;;;;;;;69.43;37.20;;;5.60;99.90;;;;;;2046744;29;20074;-77
2021/01/10 01:30:26;;;;;;;60.65;33.70;;;5.60;99.90;;;;;;2047332;28;20771;-79
2021/01/10 01:31:29;;;;;;;67.38;36.42;;;5.60;99.90;;;;;;2047199;28;20039;-77
2021/01/10 01:32:30;;;;;;;71.85;38.30;;;5.60;99.90;;;;;;2046979;28;20091;-75
2021/01/10 01:33:30;;;;;;;67.40;36.38;;;5.60;99.90;;;;;;2046782;28;20031;-79
2021/01/10 01:34:31;;;;;;;64.65;35.65;;;5.60;99.90;;;;;;2047362;28;20152;-76
2021/01/10 01:35:31;;;;;;;63.10;35.08;;;5.60;99.90;;;;;;2046237;29;20027;-77
2021/01/10 01:36:32;;;;;;;66.38;37.30;;;5.60;99.90;;;;;;2046569;29;20542;-76
2021/01/10 01:37:34;;;;;;;66.57;37.25;;;5.60;99.90;;;;;;2054163;28;20533;-77
2021/01/10 01:38:35;;;;;;;67.22;35.53;;;5.60;99.90;;;;;;2045808;29;20040;-76
2021/01/10 01:39:36;;;;;;;67.32;37.15;;;5.60;99.90;;;;;;2046531;29;20110;-77
2021/01/10 01:40:36;;;;;;;71.90;37.17;;;5.60;99.90;;;;;;2051668;28;20054;-78
2021/01/10 01:41:38;;;;;;;66.05;38.28;;;5.60;99.90;;;;;;2047188;28;20438;-78
2021/01/10 01:42:39;;;;;;;63.53;36.03;;;5.60;99.90;;;;;;2047202;28;20027;-77
2021/01/10 01:43:40;;;;;;;65.47;36.58;;;5.60;99.90;;;;;;2046522;28;20065;-76
2021/01/10 01:44:41;;;;;;;66.45;38.10;;;5.60;99.90;;;;;;2046967;29;20032;-77
2021/01/10 01:45:41;;;;;;;63.47;36.90;;;5.60;99.90;;;;;;2046653;29;20059;-76
2021/01/10 01:46:42;;;;;;;70.38;38.25;;;5.60;99.90;;;;;;2047009;28;20102;-77
2021/01/10 01:47:42;;;;;;;74.95;38.08;;;5.60;99.90;;;;;;2047038;28;20189;-78
2021/01/10 01:48:43;;;;;;;65.15;37.47;;;5.60;99.90;;;;;;2046704;29;20027;-76
2021/01/10 01:49:45;;;;;;;73.35;39.38;;;5.60;99.90;;;;;;2046403;29;20502;-76
2021/01/10 01:50:45;;;;;;;74.03;37.33;;;5.60;99.90;;;;;;2046187;28;20705;-75
2021/01/10 01:51:46;;;;;;;70.85;36.25;;;5.60;99.90;;;;;;2046259;29;20118;-76
2021/01/10 01:52:47;;;;;;;68.20;39.00;;;5.60;99.90;;;;;;2046611;29;20035;-79
2021/01/10 01:53:48;;;;;;;69.18;38.25;;;5.60;99.90;;;;;;2046763;28;20027;-76
2021/01/10 01:54:48;;;;;;;68.10;37.33;;;5.60;99.90;;;;;;2046923;28;20183;-76
2021/01/10 01:55:55;;;;;;;71.15;38.35;;;5.60;99.90;;;;;;2047315;28;20426;-77
2021/01/10 01:56:56;;;;;;;68.95;38.50;;;5.60;99.90;;;;;;2046714;28;20063;-76
2021/01/10 01:57:58;;;;;;;71.32;38.80;;;5.60;99.90;;;;;;2047190;29;20031;-77
2021/01/10 01:59:06;;;;;;;68.15;37.25;;;5.60;99.90;;;;;;2038088;29;20028;-78
2021/01/10 02:00:07;;;;;;;72.57;39.35;;;5.60;99.90;;;;;;2035717;29;20032;-77
2021/01/10 02:01:07;;;;;;;66.68;37.38;;;5.60;99.90;;;;;;2038660;29;20083;-76
2021/01/10 02:02:08;;;;;;;71.53;39.13;;;5.60;99.90;;;;;;2046650;28;20062;-78
2021/01/10 02:03:09;;;;;;;72.25;38.50;;;5.60;99.90;;;;;;2046637;28;20541;-76
2021/01/10 02:04:47;;;;;;;72.00;40.05;;;5.50;99.90;;;;;;2046703;29;20386;-77
2021/01/10 02:05:51;;;;;;;59.40;33.92;;;5.50;99.90;;;;;;2045571;29;20165;-78
2021/01/10 02:07:23;;;;;;;69.30;37.33;;;5.50;99.90;;;;;;2045925;29;20028;-77
2021/01/10 02:08:28;;;;;;;66.45;33.55;;;5.50;99.90;;;;;;2049885;28;20027;-77
2021/01/10 02:09:31;;;;;;;71.32;37.55;;;5.40;99.90;;;;;;2053664;28;20138;-76
2021/01/10 02:10:38;;;;;;;70.63;38.78;;;5.40;99.90;;;;;;2047046;29;20042;-76
2021/01/10 02:11:42;;;;;;;72.85;39.35;;;5.50;99.90;;;;;;2046377;29;20122;-76
2021/01/10 02:12:51;;;;;;;68.20;35.40;;;5.40;99.90;;;;;;2046754;28;20375;-77
2021/01/10 02:13:53;;;;;;;68.53;36.60;;;5.50;99.90;;;;;;2052813;28;20101;-77
2021/01/10 02:14:58;;;;;;;68.22;36.95;;;5.50;99.90;;;;;;2046609;29;20086;-77
2021/01/10 02:16:01;;;;;;;75.07;39.13;;;5.50;99.90;;;;;;2046356;29;20414;-78
2021/01/10 02:17:03;;;;;;;72.38;36.83;;;5.50;99.90;;;;;;2045790;29;20126;-76
2021/01/10 02:18:06;;;;;;;68.28;37.15;;;5.50;99.90;;;;;;2051236;28;20093;-75
2021/01/10 02:19:15;;;;;;;60.72;34.88;;;5.50;99.90;;;;;;2046655;28;20039;-78
2021/01/10 02:20:33;;;;;;;64.38;36.75;;;5.50;99.90;;;;;;2047139;29;20101;-76
2021/01/10 02:21:36;;;;;;;65.47;35.30;;;5.50;99.90;;;;;;2046645;28;20034;-77
2021/01/10 02:22:49;;;;;;;62.35;33.63;;;5.50;99.90;;;;;;2047048;28;20606;-76
2021/01/10 02:23:52;;;;;;;66.10;36.30;;;5.50;99.90;;;;;;2046715;28;20649;-77
2021/01/10 02:24:54;;;;;;;67.80;36.78;;;5.50;99.90;;;;;;2046983;28;20035;-77
2021/01/10 02:25:56;;;;;;;67.82;37.10;;;5.50;99.90;;;;;;2046332;28;20031;-77
2021/01/10 02:26:57;;;;;;;71.55;36.85;;;5.50;99.90;;;;;;2045959;29;20617;-76
2021/01/10 02:27:59;;;;;;;67.28;37.00;;;5.50;99.90;;;;;;2046506;29;20148;-77
2021/01/10 02:28:59;;;;;;;77.97;38.50;;;5.50;99.90;;;;;;2040536;28;20042;-76
2021/01/10 02:30:01;;;;;;;70.18;38.40;;;5.50;99.90;;;;;;2041032;29;20034;-76
2021/01/10 02:31:04;;;;;;;70.75;37.95;;;5.50;99.90;;;;;;2053909;28;20422;-78
2021/01/10 02:32:06;;;;;;;69.43;38.38;;;5.50;99.90;;;;;;2046251;29;20020;-76
2021/01/10 02:33:17;;;;;;;63.72;35.88;;;5.50;99.90;;;;;;2046021;29;20118;-77
2021/01/10 02:34:19;;;;;;;67.60;35.95;;;5.50;99.90;;;;;;2049936;28;20026;-77
2021/01/10 02:35:22;;;;;;;72.03;37.90;;;5.50;99.90;;;;;;2047005;28;20019;-76
2021/01/10 02:36:25;;;;;;;68.85;34.20;;;5.50;99.90;;;;;;2046811;29;20235;-76
2021/01/10 02:37:48;;;;;;;73.28;36.90;;;5.50;99.90;;;;;;2046299;29;20027;-78
2021/01/10 02:38:57;;;;;;;69.07;35.60;;;5.40;99.90;;;;;;2046410;28;20027;-78
2021/01/10 02:40:14;;;;;;;67.03;36.55;;;5.50;99.90;;;;;;2046884;29;20364;-79
2021/01/10 02:41:17;;;;;;;65.97;35.58;;;5.40;99.90;;;;;;2054145;28;20037;-77
2021/01/10 02:42:32;;;;;;;64.53;34.60;;;5.40;99.90;;;;;;2053665;28;20437;-76
2021/01/10 02:43:34;;;;;;;69.88;35.38;;;5.40;99.90;;;;;;2046716;28;20383;-77
2021/01/10 02:44:38;;;;;;;62.63;34.72;;;5.50;99.90;;;;;;2046775;28;20766;-75
2021/01/10 02:45:41;;;;;;;64.85;33.80;;;5.50;99.90;;;;;;2046510;28;20027;-75
2021/01/10 02:46:45;;;;;;;65.50;35.42;;;5.50;99.90;;;;;;2046392;28;20027;-78
2021/01/10 02:47:47;;;;;;;55.80;31.98;;;5.40;99.90;;;;;;2038947;29;20027;-77
2021/01/10 02:48:48;;;;;;;62.88;32.83;;;5.50;99.90;;;;;;2043114;29;20602;-77
2021/01/10 02:49:49;;;;;;;63.78;34.33;;;5.50;99.90;;;;;;2045885;28;20032;-76
2021/01/10 02:50:49;;;;;;;61.53;32.83;;;5.50;99.90;;;;;;2045988;29;20027;-76
2021/01/10 02:51:50;;;;;;;63.97;33.50;;;5.50;99.90;;;;;;2046762;28;20029;-77
2021/01/10 02:52:51;;;;;;;69.55;35.00;;;5.50;99.90;;;;;;2046910;28;20090;-75
2021/01/10 02:53:52;;;;;;;66.60;36.28;;;5.50;99.90;;;;;;2046652;28;20027;-75
2021/01/10 02:54:52;;;;;;;56.00;32.00;;;5.50;99.90;;;;;;2045824;29;20542;-76
2021/01/10 02:55:53;;;;;;;63.53;34.25;;;5.50;99.90;;;;;;2045931;29;20027;-74
2021/01/10 02:56:57;;;;;;;56.53;31.50;;;5.50;99.90;;;;;;2046395;29;20475;-75
2021/01/10 02:58:03;;;;;;;58.47;33.88;;;5.50;99.90;;;;;;2046961;28;20043;-76
2021/01/10 02:59:05;;;;;;;59.58;32.33;;;5.50;99.90;;;;;;2038811;29;20039;-75
2021/01/10 03:00:08;;;;;;;61.65;33.47;;;5.50;99.90;;;;;;2043586;29;20031;-76
2021/01/10 03:01:11;;;;;;;60.60;33.00;;;5.50;99.90;;;;;;2049354;29;20614;-76
2021/01/10 03:02:13;;;;;;;59.92;32.78;;;5.50;99.90;;;;;;2048509;29;20030;-76
2021/01/10 03:03:15;;;;;;;58.97;33.42;;;5.50;99.90;;;;;;2048737;29;20090;-75
2021/01/10 03:04:16;;;;;;;56.80;31.75;;;5.40;99.90;;;;;;2049015;28;20035;-75
2021/01/10 03:05:17;;;;;;;65.85;33.60;;;5.50;99.90;;;;;;2049349;28;20123;-76
2021/01/10 03:06:18;;;;;;;58.63;32.35;;;5.40;99.90;;;;;;2049109;28;20368;-77
2021/01/10 03:07:18;;;;;;;60.15;32.90;;;5.50;99.90;;;;;;2049211;28;20042;-76
2021/01/10 03:08:19;;;;;;;59.63;32.13;;;5.50;99.90;;;;;;2048347;28;20073;-76
2021/01/10 03:09:21;;;;;;;54.45;32.03;;;5.50;99.90;;;;;;2049234;28;20019;-74
2021/01/10 03:10:21;;;;;;;52.53;30.88;;;5.50;99.90;;;;;;2048525;29;20023;-75
2021/01/10 03:11:23;;;;;;;52.97;29.20;;;5.40;99.90;;;;;;2048912;29;20051;-76
2021/01/10 03:12:27;;;;;;;57.80;31.45;;;5.50;99.90;;;;;;2041318;29;20027;-74
2021/01/10 03:13:27;;;;;;;54.65;31.55;;;5.50;99.90;;;;;;2048403;29;20023;-73
2021/01/10 03:14:28;;;;;;;56.95;31.58;;;5.50;99.90;;;;;;2048783;28;20486;-75
2021/01/10 03:15:29;;;;;;;57.40;32.53;;;5.50;99.90;;;;;;2049141;28;20024;-76
2021/01/10 03:16:30;;;;;;;51.40;30.45;;;5.50;99.90;;;;;;2048963;28;20479;-75
2021/01/10 03:17:57;;;;;;;48.15;28.83;;;5.50;99.90;;;;;;2049163;28;20482;-75
2021/01/10 03:18:58;;;;;;;52.30;30.33;;;5.50;99.90;;;;;;2045859;29;20479;-75
2021/01/10 03:19:59;;;;;;;60.83;31.15;;;5.50;99.90;;;;;;2048976;28;20039;-76
2021/01/10 03:20:59;;;;;;;60.47;32.15;;;5.50;99.90;;;;;;2048833;29;20127;-76
2021/01/10 03:22:00;;;;;;;56.33;30.85;;;5.50;99.90;;;;;;2056831;28;20113;-77
2021/01/10 03:23:01;;;;;;;58.85;30.90;;;5.50;99.90;;;;;;2055930;28;20023;-76
2021/01/10 03:24:02;;;;;;;54.15;31.35;;;5.50;99.90;;;;;;2048853;29;20034;-77
2021/01/10 03:25:05;;;;;;;57.83;33.05;;;5.40;99.90;;;;;;2048710;28;20604;-75
2021/01/10 03:26:05;;;;;;;60.40;32.55;;;5.50;99.90;;;;;;2048824;28;20028;-76
2021/01/10 03:27:06;;;;;;;53.25;30.63;;;5.40;99.90;;;;;;2048624;29;20415;-77
2021/01/10 03:28:07;;;;;;;61.63;30.92;;;5.50;99.90;;;;;;2048819;29;20399;-77
2021/01/10 03:29:08;;;;;;;57.72;31.85;;;5.40;99.90;;;;;;2048803;28;20028;-76
2021/01/10 03:30:12;;;;;;;51.80;30.92;;;5.50;99.90;;;;;;2049326;28;20039;-75
2021/01/10 03:31:13;;;;;;;58.42;32.13;;;5.50;99.90;;;;;;2048923;28;20042;-78
2021/01/10 03:32:14;;;;;;;55.15;32.42;;;5.40;99.90;;;;;;2049133;28;20391;-76
2021/01/10 03:33:15;;;;;;;53.78;29.85;;;5.40;99.90;;;;;;2049170;28;20054;-79
2021/01/10 03:34:16;;;;;;;49.05;29.98;;;5.40;99.90;;;;;;2049103;29;20074;-75
2021/01/10 03:35:17;;;;;;;52.60;30.60;;;5.40;99.90;;;;;;2048905;28;20023;-77
2021/01/10 03:36:18;;;;;;;55.08;32.17;;;5.40;99.90;;;;;;2048781;28;20030;-78
2021/01/10 03:37:18;;;;;;;55.90;32.25;;;5.40;99.90;;;;;;2048453;29;20051;-77
2021/01/10 03:38:19;;;;;;;57.67;32.67;;;5.40;99.90;;;;;;2048433;29;20089;-75
2021/01/10 03:39:19;;;;;;;56.35;32.13;;;5.40;99.90;;;;;;2048529;29;20521;-75
2021/01/10 03:40:20;;;;;;;59.42;30.52;;;5.40;99.90;;;;;;2048042;29;20030;-77
2021/01/10 03:41:23;;;;;;;49.38;29.23;;;5.40;99.90;;;;;;2049301;28;20586;-76
2021/01/10 03:42:24;;;;;;;57.60;30.20;;;5.40;99.90;;;;;;2043350;29;20024;-76
2021/01/10 03:43:24;;;;;;;57.92;32.13;;;5.40;99.90;;;;;;2041944;29;20039;-75
2021/01/10 03:44:25;;;;;;;55.45;30.52;;;5.40;99.90;;;;;;2047998;29;20028;-76
2021/01/10 03:45:26;;;;;;;53.70;30.90;;;5.40;99.90;;;;;;2048423;29;20429;-78
2021/01/10 03:46:26;;;;;;;50.65;29.67;;;5.40;99.90;;;;;;2048588;28;20059;-75
2021/01/10 03:47:27;;;;;;;58.58;30.45;;;5.40;99.90;;;;;;2048573;28;20126;-77
2021/01/10 03:48:28;;;;;;;56.95;31.52;;;5.40;99.90;;;;;;2048471;29;20027;-76
2021/01/10 03:49:28;;;;;;;57.53;29.92;;;5.40;99.90;;;;;;2048951;28;20038;-76
2021/01/10 03:50:29;;;;;;;54.35;30.17;;;5.40;99.90;;;;;;2047919;28;20835;-78
2021/01/10 03:51:30;;;;;;;55.35;31.92;;;5.40;99.90;;;;;;2047534;29;20387;-77
2021/01/10 03:52:30;;;;;;;55.90;30.25;;;5.40;99.90;;;;;;2048539;29;20034;-77
2021/01/10 03:53:31;;;;;;;54.33;29.95;;;5.40;99.90;;;;;;2048861;28;20662;-78
2021/01/10 03:54:31;;;;;;;55.55;29.42;;;5.40;99.90;;;;;;2048751;28;20062;-78
2021/01/10 03:55:32;;;;;;;55.40;30.27;;;5.40;99.90;;;;;;2048845;28;20058;-77
2021/01/10 03:56:32;;;;;;;55.30;30.92;;;5.40;99.90;;;;;;2047936;29;20041;-76
2021/01/10 03:57:36;;;;;;;46.40;28.80;;;5.40;99.90;;;;;;2048043;29;20074;-76
2021/01/10 03:58:37;;;;;;;50.85;28.95;;;5.40;99.90;;;;;;2052999;28;20392;-76
2021/01/10 03:59:37;;;;;;;55.97;30.33;;;5.40;99.90;;;;;;2049126;28;20054;-76
2021/01/10 04:00:38;;;;;;;52.35;28.48;;;5.40;99.90;;;;;;2048558;28;20029;-76
2021/01/10 04:01:39;;;;;;;47.33;27.15;;;5.40;99.90;;;;;;2048538;28;20031;-76
2021/01/10 04:02:40;;;;;;;51.58;28.50;;;5.40;99.90;;;;;;2047860;28;20103;-75
2021/01/10 04:03:40;;;;;;;51.35;28.13;;;5.40;99.90;;;;;;2048358;28;20082;-77
2021/01/10 04:04:41;;;;;;;50.05;29.23;;;5.40;99.90;;;;;;2047904;29;20047;-76
2021/01/10 04:05:41;;;;;;;49.05;28.42;;;5.40;99.90;;;;;;2048041;28;20023;-76
2021/01/10 04:06:42;;;;;;;54.63;28.50;;;5.40;99.90;;;;;;2047919;28;20034;-77
2021/01/10 04:07:42;;;;;;;52.58;29.13;;;5.40;99.90;;;;;;2048097;28;20047;-76
2021/01/10 04:08:46;;;;;;;52.17;27.23;;;5.40;99.90;;;;;;2047451;28;20614;-76
2021/01/10 04:09:47;;;;;;;50.90;28.30;;;5.40;99.90;;;;;;2048220;28;20031;-77
2021/01/10 04:10:47;;;;;;;50.60;28.85;;;5.40;99.90;;;;;;2047358;28;20378;-76
2021/01/10 04:11:48;;;;;;;47.25;26.85;;;5.40;99.90;;;;;;2047359;28;20043;-76
2021/01/10 04:12:49;;;;;;;51.60;27.88;;;5.40;99.90;;;;;;2047762;28;20058;-77
2021/01/10 04:13:49;;;;;;;49.50;28.77;;;5.40;99.90;;;;;;2047425;29;20149;-76
2021/01/10 04:14:55;;;;;;;51.08;28.73;;;5.40;99.90;;;;;;2047032;29;20038;-77
2021/01/10 04:15:56;;;;;;;49.03;27.98;;;5.40;99.90;;;;;;2047807;28;20023;-76
2021/01/10 04:16:56;;;;;;;52.65;28.63;;;5.40;99.90;;;;;;2046684;29;20084;-78
2021/01/10 04:17:57;;;;;;;48.00;26.83;;;5.40;99.90;;;;;;2047050;29;20035;-77
2021/01/10 04:18:58;;;;;;;50.88;27.95;;;5.40;99.90;;;;;;2047583;29;20027;-77
2021/01/10 04:19:58;;;;;;;50.65;28.50;;;5.40;99.90;;;;;;2047695;29;20035;-75
2021/01/10 04:21:01;;;;;;;49.08;27.98;;;5.40;99.90;;;;;;2054651;28;20125;-77
2021/01/10 04:22:02;;;;;;;49.88;26.27;;;5.40;99.90;;;;;;2055178;28;20082;-77
2021/01/10 04:23:02;;;;;;;50.78;27.88;;;5.40;99.90;;;;;;2047497;28;20590;-76
2021/01/10 04:24:04;;;;;;;46.22;26.35;;;5.40;99.90;;;;;;2047568;28;20054;-76
2021/01/10 04:25:05;;;;;;;45.25;26.30;;;5.40;99.90;;;;;;2047673;28;20526;-77
2021/01/10 04:26:06;;;;;;;47.53;27.23;;;5.40;99.90;;;;;;2047537;28;20032;-77
2021/01/10 04:27:06;;;;;;;45.75;27.00;;;5.40;99.90;;;;;;2047273;28;20463;-77
2021/01/10 04:28:07;;;;;;;46.70;28.60;;;5.40;99.90;;;;;;2046864;28;20028;-78
2021/01/10 04:29:07;;;;;;;47.63;27.05;;;5.40;99.90;;;;;;2048861;28;20034;-75
2021/01/10 04:30:09;;;;;;;46.35;26.65;;;5.30;99.90;;;;;;2051426;28;20053;-76
2021/01/10 04:31:09;;;;;;;53.88;28.50;;;5.30;99.90;;;;;;2052449;28;20453;-76
2021/01/10 04:32:10;;;;;;;44.15;26.40;;;5.30;99.90;;;;;;2052111;28;20110;-77
2021/01/10 04:33:10;;;;;;;42.03;25.02;;;5.30;99.90;;;;;;2055070;28;20026;-76
2021/01/10 04:34:11;;;;;;;39.50;24.83;;;5.30;99.90;;;;;;2047318;28;20078;-76
2021/01/10 04:35:12;;;;;;;46.38;25.73;;;5.30;99.90;;;;;;2046461;29;20495;-75
2021/01/10 04:36:12;;;;;;;43.20;25.20;;;5.30;99.90;;;;;;2046740;29;20055;-76
2021/01/10 04:37:13;;;;;;;47.08;26.58;;;5.30;99.90;;;;;;2047333;28;20034;-78
2021/01/10 04:38:13;;;;;;;43.53;26.58;;;5.30;99.90;;;;;;2051308;28;20089;-75
2021/01/10 04:39:15;;;;;;;47.95;26.75;;;5.30;99.90;;;;;;2054112;28;20447;-75
2021/01/10 04:40:17;;;;;;;44.25;25.60;;;5.30;99.90;;;;;;2049973;28;20089;-76
2021/01/10 04:41:17;;;;;;;47.22;25.90;;;5.30;99.90;;;;;;2046943;29;20035;-75
2021/01/10 04:42:18;;;;;;;48.33;26.50;;;5.30;99.90;;;;;;2041913;29;20075;-76
2021/01/10 04:43:19;;;;;;;45.63;26.65;;;5.30;99.90;;;;;;2039351;29;20039;-76
2021/01/10 04:44:23;;;;;;;47.47;28.38;;;5.30;99.90;;;;;;2054497;28;20031;-76
2021/01/10 04:45:24;;;;;;;45.75;25.50;;;5.30;99.90;;;;;;2051057;28;20028;-77
2021/01/10 04:46:26;;;;;;;50.95;27.25;;;5.30;99.90;;;;;;2039137;29;20035;-75
2021/01/10 04:47:27;;;;;;;49.05;27.02;;;5.30;99.90;;;;;;2053868;28;20468;-76
2021/01/10 04:48:28;;;;;;;48.38;28.05;;;5.30;99.90;;;;;;2054724;28;20022;-75
2021/01/10 04:49:29;;;;;;;46.78;26.73;;;5.20;99.90;;;;;;2046991;29;20081;-76
2021/01/10 04:50:33;;;;;;;42.08;26.60;;;5.30;99.90;;;;;;2046709;29;20035;-75
2021/01/10 04:51:36;;;;;;;49.95;26.50;;;5.30;99.90;;;;;;2054824;28;20478;-77
2021/01/10 04:52:38;;;;;;;48.97;28.20;;;5.30;99.90;;;;;;2054671;28;20054;-77
2021/01/10 04:53:42;;;;;;;44.80;26.63;;;5.20;99.90;;;;;;2046815;29;20027;-77
2021/01/10 04:54:45;;;;;;;53.10;28.88;;;5.30;99.90;;;;;;2041905;28;21003;-74
2021/01/10 04:55:47;;;;;;;45.58;25.98;;;5.30;99.90;;;;;;2048366;28;20027;-77
2021/01/10 04:56:49;;;;;;;46.30;27.60;;;5.20;99.90;;;;;;2052143;28;20035;-76
2021/01/10 04:58:00;;;;;;;43.50;24.83;;;5.20;99.90;;;;;;2055751;28;20064;-76
2021/01/10 04:59:02;;;;;;;42.97;25.42;;;5.30;99.90;;;;;;2039586;29;20118;-77
2021/01/10 05:00:07;;;;;;;44.08;26.35;;;5.20;99.90;;;;;;2043397;29;20486;-76
2021/01/10 05:01:18;;;;;;;48.53;27.50;;;5.20;99.90;;;;;;2045436;28;20036;-76
2021/01/10 05:02:23;;;;;;;;;;;5.20;99.90;;;;;;2048049;28;20031;-76
2021/01/10 05:03:25;;;;;;;42.22;24.38;;;5.10;99.90;;;;;;2047984;28;19906;-76
2021/01/10 05:04:29;;;;;;;53.38;27.77;;;5.20;99.90;;;;;;2052853;28;20026;-77
2021/01/10 05:05:31;;;;;;;53.08;28.27;;;5.20;99.90;;;;;;2052686;28;20027;-76
2021/01/10 05:06:34;;;;;;;49.03;28.83;;;5.20;99.90;;;;;;2051550;28;20035;-77
2021/01/10 05:07:35;;;;;;;44.95;28.20;;;5.20;99.90;;;;;;2046863;28;20024;-77
2021/01/10 05:08:36;;;;;;;46.88;25.73;;;5.20;99.90;;;;;;2046814;29;20106;-76
2021/01/10 05:09:37;;;;;;;46.35;25.45;;;5.20;99.90;;;;;;2047428;28;20019;-77
2021/01/10 05:10:39;;;;;;;46.20;27.10;;;5.20;99.90;;;;;;2047424;29;20030;-76
2021/01/10 05:11:40;;;;;;;49.92;27.55;;;5.20;99.90;;;;;;2047112;29;20027;-77
2021/01/10 05:12:41;;;;;;;45.60;26.35;;;5.20;99.90;;;;;;2047279;29;20483;-77
2021/01/10 05:13:42;;;;;;;43.75;26.80;;;5.20;99.90;;;;;;2047409;28;20035;-76
2021/01/10 05:14:43;;;;;;;51.00;27.83;;;5.20;99.90;;;;;;2046383;29;20031;-77
2021/01/10 05:15:44;;;;;;;48.70;28.27;;;5.20;99.90;;;;;;2047006;29;20030;-77
2021/01/10 05:16:45;;;;;;;43.63;26.50;;;5.10;99.90;;;;;;2046546;29;20050;-76
2021/01/10 05:17:58;;;;;;;46.88;25.30;;;5.20;99.90;;;;;;2047238;29;20134;-76
2021/01/10 05:19:00;;;;;;;42.53;25.08;;;5.10;99.90;;;;;;2047511;28;20058;-76
2021/01/10 05:20:07;;;;;;;45.20;25.10;;;5.10;99.90;;;;;;2046974;28;20031;-75